sensor_id;sensor_type;location;lat;lon;timestamp;pressure;altitude;pressure_sealevel;temperature;humidity
596;BME280;19946;49.306;11.350;2022-11-22T00:01:33;94573.66;;;1.13;100.00
596;BME280;19946;49.306;11.350;2022-11-22T00:04:33;94564.03;;;1.17;100.00
596;BME280;19946;49.306;11.350;2022-11-22T00:07:33;94459.56;;;0.51;100.00
596;BME280;19946;49.306;11.350;2022-11-22T00:10:36;94542.50;;;0.98;100.00
596;BME280;19946;49.306;11.350;2022-11-22T00:13:36;94552.94;;;0.95;100.00
596;BME280;19946;49.306;11.350;2022-11-22T00:16:36;94543.59;;;0.73;100.00
596;BME280;19946;49.306;11.350;2022-11-22T00:22:59;94495.66;;;0.45;100.00
596;BME280;19946;49.306;11.350;2022-11-22T00:26:00;94471.81;;;0.24;100.00
596;BME280;19946;49.306;11.350;2022-11-22T00:29:00;94448.56;;;0.28;100.00
596;BME280;19946;49.306;11.350;2022-11-22T00:32:01;94462.81;;;0.53;100.00
596;BME280;19946;49.306;11.350;2022-11-22T00:35:01;94548.16;;;1.13;100.00
596;BME280;19946;49.306;11.350;2022-11-22T00:38:05;94528.66;;;1.23;100.00
596;BME280;19946;49.306;11.350;2022-11-22T00:41:06;94523.56;;;1.23;100.00
596;BME280;19946;49.306;11.350;2022-11-22T00:44:06;94457.06;;;0.83;100.00
596;BME280;19946;49.306;11.350;2022-11-22T00:50:54;94456.47;;;0.80;100.00
596;BME280;19946;49.306;11.350;2022-11-22T00:53:55;94535.25;;;1.26;100.00
596;BME280;19946;49.306;11.350;2022-11-22T01:10:05;94437.59;;;0.28;100.00
596;BME280;19946;49.306;11.350;2022-11-22T01:13:05;94343.78;;;-0.21;100.00
596;BME280;19946;49.306;11.350;2022-11-22T01:20:30;94451.44;;;0.57;100.00
596;BME280;19946;49.306;11.350;2022-11-22T01:23:31;94418.94;;;0.50;100.00
596;BME280;19946;49.306;11.350;2022-11-22T01:26:46;94501.25;;;1.04;100.00
596;BME280;19946;49.306;11.350;2022-11-22T01:29:46;94418.13;;;0.49;100.00
596;BME280;19946;49.306;11.350;2022-11-22T01:32:46;94516.88;;;1.11;100.00
596;BME280;19946;49.306;11.350;2022-11-22T01:35:47;94477.97;;;0.98;100.00
596;BME280;19946;49.306;11.350;2022-11-22T01:38:47;94503.41;;;1.20;100.00
596;BME280;19946;49.306;11.350;2022-11-22T01:41:48;94464.09;;;0.91;100.00
596;BME280;19946;49.306;11.350;2022-11-22T01:44:49;94436.94;;;0.69;100.00
596;BME280;19946;49.306;11.350;2022-11-22T01:47:49;94415.22;;;0.54;100.00
596;BME280;19946;49.306;11.350;2022-11-22T01:50:57;94436.34;;;0.65;100.00
596;BME280;19946;49.306;11.350;2022-11-22T01:54:03;94522.31;;;1.18;100.00
596;BME280;19946;49.306;11.350;2022-11-22T01:57:09;94495.16;;;0.96;100.00
596;BME280;19946;49.306;11.350;2022-11-22T02:00:15;94487.03;;;0.91;100.00
596;BME280;19946;49.306;11.350;2022-11-22T02:03:25;94433.59;;;0.57;100.00
596;BME280;19946;49.306;11.350;2022-11-22T02:06:35;94502.84;;;1.17;100.00
596;BME280;19946;49.306;11.350;2022-11-22T02:09:40;94401.66;;;0.64;100.00
596;BME280;19946;49.306;11.350;2022-11-22T02:12:42;94473.88;;;1.18;100.00
596;BME280;19946;49.306;11.350;2022-11-22T02:15:42;94448.69;;;0.92;100.00
596;BME280;19946;49.306;11.350;2022-11-22T02:18:43;94447.38;;;0.98;100.00
596;BME280;19946;49.306;11.350;2022-11-22T02:21:49;94425.22;;;0.78;100.00
596;BME280;19946;49.306;11.350;2022-11-22T02:25:05;94476.13;;;1.00;100.00
596;BME280;19946;49.306;11.350;2022-11-22T02:32:31;94316.97;;;-0.03;100.00
596;BME280;19946;49.306;11.350;2022-11-22T02:35:32;94475.69;;;0.95;100.00
596;BME280;19946;49.306;11.350;2022-11-22T02:38:33;94469.31;;;0.89;100.00
596;BME280;19946;49.306;11.350;2022-11-22T02:41:35;94334.88;;;0.07;100.00
596;BME280;19946;49.306;11.350;2022-11-22T02:44:36;94403.75;;;0.48;100.00
596;BME280;19946;49.306;11.350;2022-11-22T02:47:37;94484.69;;;0.99;100.00
596;BME280;19946;49.306;11.350;2022-11-22T02:50:38;94492.00;;;1.03;100.00
596;BME280;19946;49.306;11.350;2022-11-22T02:53:38;94415.22;;;0.54;100.00
596;BME280;19946;49.306;11.350;2022-11-22T02:56:39;94408.72;;;0.61;100.00
596;BME280;19946;49.306;11.350;2022-11-22T02:59:39;94411.81;;;0.76;100.00
596;BME280;19946;49.306;11.350;2022-11-22T03:02:39;94507.75;;;1.40;100.00
596;BME280;19946;49.306;11.350;2022-11-22T03:12:23;94505.06;;;1.42;100.00
596;BME280;19946;49.306;11.350;2022-11-22T03:15:24;94352.59;;;0.51;100.00
596;BME280;19946;49.306;11.350;2022-11-22T03:18:24;94359.78;;;0.46;100.00
596;BME280;19946;49.306;11.350;2022-11-22T03:21:24;94473.81;;;1.08;100.00
596;BME280;19946;49.306;11.350;2022-11-22T03:27:41;94521.97;;;1.43;100.00
596;BME280;19946;49.306;11.350;2022-11-22T03:30:41;94479.56;;;1.10;100.00
596;BME280;19946;49.306;11.350;2022-11-22T03:33:42;94469.38;;;1.10;100.00
596;BME280;19946;49.306;11.350;2022-11-22T03:36:42;94518.88;;;1.39;100.00
596;BME280;19946;49.306;11.350;2022-11-22T03:43:58;94435.41;;;0.78;100.00
596;BME280;19946;49.306;11.350;2022-11-22T03:46:59;94393.66;;;0.58;100.00
596;BME280;19946;49.306;11.350;2022-11-22T03:53:27;94518.63;;;1.42;100.00
596;BME280;19946;49.306;11.350;2022-11-22T03:56:27;94517.81;;;1.42;100.00
596;BME280;19946;49.306;11.350;2022-11-22T04:03:50;94491.25;;;1.13;100.00
596;BME280;19946;49.306;11.350;2022-11-22T04:06:51;94503.34;;;1.31;100.00
596;BME280;19946;49.306;11.350;2022-11-22T04:09:51;94547.22;;;1.57;100.00
596;BME280;19946;49.306;11.350;2022-11-22T04:12:56;94550.69;;;1.56;100.00
596;BME280;19946;49.306;11.350;2022-11-22T04:15:57;94540.50;;;1.56;100.00
596;BME280;19946;49.306;11.350;2022-11-22T04:19:16;94548.25;;;1.55;100.00
596;BME280;19946;49.306;11.350;2022-11-22T04:29:35;94557.88;;;1.62;100.00
596;BME280;19946;49.306;11.350;2022-11-22T04:32:36;94580.03;;;1.62;100.00
596;BME280;19946;49.306;11.350;2022-11-22T04:35:45;94503.63;;;1.28;100.00
596;BME280;19946;49.306;11.350;2022-11-22T04:38:45;94571.06;;;1.67;100.00
596;BME280;19946;49.306;11.350;2022-11-22T04:41:46;94498.75;;;1.25;100.00
596;BME280;19946;49.306;11.350;2022-11-22T04:44:46;94562.72;;;1.65;100.00
596;BME280;19946;49.306;11.350;2022-11-22T04:47:46;94526.72;;;1.48;100.00
596;BME280;19946;49.306;11.350;2022-11-22T04:50:59;94565.47;;;1.73;100.00
596;BME280;19946;49.306;11.350;2022-11-22T04:54:18;94549.19;;;1.54;100.00
596;BME280;19946;49.306;11.350;2022-11-22T04:57:20;94540.38;;;1.58;100.00
596;BME280;19946;49.306;11.350;2022-11-22T05:00:20;94482.53;;;1.26;100.00
596;BME280;19946;49.306;11.350;2022-11-22T05:03:20;94515.41;;;1.40;100.00
596;BME280;19946;49.306;11.350;2022-11-22T05:06:23;94517.09;;;1.51;100.00
596;BME280;19946;49.306;11.350;2022-11-22T05:09:23;94509.94;;;1.45;100.00
596;BME280;19946;49.306;11.350;2022-11-22T05:12:23;94490.28;;;1.57;100.00
596;BME280;19946;49.306;11.350;2022-11-22T05:15:24;94443.19;;;1.40;100.00
596;BME280;19946;49.306;11.350;2022-11-22T05:18:25;94524.41;;;1.97;100.00
596;BME280;19946;49.306;11.350;2022-11-22T05:21:27;94413.31;;;1.31;100.00
596;BME280;19946;49.306;11.350;2022-11-22T05:24:28;94535.31;;;1.99;100.00
596;BME280;19946;49.306;11.350;2022-11-22T05:27:28;94485.06;;;1.79;100.00
596;BME280;19946;49.306;11.350;2022-11-22T05:30:28;94480.13;;;1.66;100.00
596;BME280;19946;49.306;11.350;2022-11-22T05:33:28;94501.13;;;1.91;100.00
596;BME280;19946;49.306;11.350;2022-11-22T05:36:31;94545.44;;;2.10;100.00
596;BME280;19946;49.306;11.350;2022-11-22T05:39:32;94398.63;;;1.23;100.00
596;BME280;19946;49.306;11.350;2022-11-22T05:42:32;94546.56;;;2.17;100.00
596;BME280;19946;49.306;11.350;2022-11-22T05:45:33;94549.69;;;2.21;100.00
596;BME280;19946;49.306;11.350;2022-11-22T05:48:34;94476.34;;;1.81;100.00
596;BME280;19946;49.306;11.350;2022-11-22T05:51:35;94509.28;;;2.05;100.00
596;BME280;19946;49.306;11.350;2022-11-22T05:54:38;94465.66;;;1.67;100.00
596;BME280;19946;49.306;11.350;2022-11-22T05:57:38;94537.09;;;2.08;100.00
596;BME280;19946;49.306;11.350;2022-11-22T06:00:38;94461.00;;;1.51;100.00
596;BME280;19946;49.306;11.350;2022-11-22T06:03:39;94566.91;;;2.29;100.00
596;BME280;19946;49.306;11.350;2022-11-22T06:06:40;94571.50;;;2.25;100.00
596;BME280;19946;49.306;11.350;2022-11-22T06:09:40;94580.56;;;2.18;100.00
596;BME280;19946;49.306;11.350;2022-11-22T06:12:40;94523.09;;;1.82;100.00
596;BME280;19946;49.306;11.350;2022-11-22T06:15:48;94575.84;;;2.13;100.00
596;BME280;19946;49.306;11.350;2022-11-22T06:18:49;94597.25;;;2.22;100.00
596;BME280;19946;49.306;11.350;2022-11-22T06:21:50;94591.28;;;2.12;100.00
596;BME280;19946;49.306;11.350;2022-11-22T06:24:52;94455.47;;;1.14;100.00
596;BME280;19946;49.306;11.350;2022-11-22T06:27:52;94467.47;;;1.23;100.00
596;BME280;19946;49.306;11.350;2022-11-22T06:30:53;94617.06;;;2.09;100.00
596;BME280;19946;49.306;11.350;2022-11-22T06:33:58;94626.34;;;2.10;100.00
596;BME280;19946;49.306;11.350;2022-11-22T06:36:59;94622.91;;;2.00;100.00
596;BME280;19946;49.306;11.350;2022-11-22T06:39:59;94525.50;;;1.31;100.00
596;BME280;19946;49.306;11.350;2022-11-22T06:46:18;94608.09;;;1.94;100.00
596;BME280;19946;49.306;11.350;2022-11-22T06:49:20;94462.94;;;0.95;100.00
596;BME280;19946;49.306;11.350;2022-11-22T06:52:21;94633.06;;;2.11;100.00
596;BME280;19946;49.306;11.350;2022-11-22T06:55:22;94622.28;;;2.07;100.00
596;BME280;19946;49.306;11.350;2022-11-22T06:58:24;94547.06;;;1.70;100.00
596;BME280;19946;49.306;11.350;2022-11-22T07:01:27;94628.47;;;2.26;100.00
596;BME280;19946;49.306;11.350;2022-11-22T07:04:28;94547.47;;;1.75;100.00
596;BME280;19946;49.306;11.350;2022-11-22T07:07:29;94547.81;;;1.81;100.00
596;BME280;19946;49.306;11.350;2022-11-22T07:10:29;94625.34;;;2.43;100.00
596;BME280;19946;49.306;11.350;2022-11-22T07:13:30;94590.78;;;2.18;100.00
596;BME280;19946;49.306;11.350;2022-11-22T07:16:31;94642.88;;;2.47;100.00
596;BME280;19946;49.306;11.350;2022-11-22T07:19:31;94562.97;;;1.94;100.00
596;BME280;19946;49.306;11.350;2022-11-22T07:22:32;94668.22;;;2.39;100.00
596;BME280;19946;49.306;11.350;2022-11-22T07:25:32;94585.34;;;1.91;100.00
596;BME280;19946;49.306;11.350;2022-11-22T07:28:33;94664.66;;;2.31;100.00
596;BME280;19946;49.306;11.350;2022-11-22T07:31:33;94555.56;;;1.59;100.00
596;BME280;19946;49.306;11.350;2022-11-22T07:34:36;94661.47;;;2.17;100.00
596;BME280;19946;49.306;11.350;2022-11-22T07:37:36;94666.53;;;2.29;100.00
596;BME280;19946;49.306;11.350;2022-11-22T07:40:37;94627.91;;;2.01;100.00
596;BME280;19946;49.306;11.350;2022-11-22T07:43:37;94684.63;;;2.37;100.00
596;BME280;19946;49.306;11.350;2022-11-22T07:54:02;94693.69;;;2.30;100.00
596;BME280;19946;49.306;11.350;2022-11-22T07:57:04;94717.00;;;2.36;100.00
596;BME280;19946;49.306;11.350;2022-11-22T08:00:05;94675.50;;;2.23;100.00
596;BME280;19946;49.306;11.350;2022-11-22T08:03:06;94710.72;;;2.40;100.00
596;BME280;19946;49.306;11.350;2022-11-22T08:06:13;94727.38;;;2.55;100.00
596;BME280;19946;49.306;11.350;2022-11-22T08:13:09;94654.94;;;2.04;100.00
596;BME280;19946;49.306;11.350;2022-11-22T08:16:12;94670.59;;;2.31;100.00
596;BME280;19946;49.306;11.350;2022-11-22T08:19:14;94747.53;;;2.90;100.00
596;BME280;19946;49.306;11.350;2022-11-22T08:22:16;94743.59;;;2.86;100.00
596;BME280;19946;49.306;11.350;2022-11-22T08:25:17;94757.38;;;2.95;100.00
596;BME280;19946;49.306;11.350;2022-11-22T08:28:17;94694.72;;;2.59;100.00
596;BME280;19946;49.306;11.350;2022-11-22T08:31:19;94716.09;;;3.00;100.00
596;BME280;19946;49.306;11.350;2022-11-22T08:34:19;94733.13;;;3.10;100.00
596;BME280;19946;49.306;11.350;2022-11-22T08:37:19;94669.47;;;2.86;100.00
596;BME280;19946;49.306;11.350;2022-11-22T08:40:22;94738.59;;;3.36;100.00
596;BME280;19946;49.306;11.350;2022-11-22T08:43:22;94745.19;;;3.59;100.00
596;BME280;19946;49.306;11.350;2022-11-22T08:46:22;94747.41;;;3.74;100.00
596;BME280;19946;49.306;11.350;2022-11-22T08:49:23;94719.81;;;3.87;100.00
596;BME280;19946;49.306;11.350;2022-11-22T08:52:23;94740.22;;;4.27;100.00
596;BME280;19946;49.306;11.350;2022-11-22T08:55:26;94679.94;;;4.03;100.00
596;BME280;19946;49.306;11.350;2022-11-22T08:58:28;94675.25;;;4.18;100.00
596;BME280;19946;49.306;11.350;2022-11-22T09:01:30;94691.09;;;4.89;100.00
596;BME280;19946;49.306;11.350;2022-11-22T09:04:30;94716.31;;;5.03;100.00
596;BME280;19946;49.306;11.350;2022-11-22T09:07:33;94733.97;;;5.16;100.00
596;BME280;19946;49.306;11.350;2022-11-22T09:10:35;94664.94;;;4.76;100.00
596;BME280;19946;49.306;11.350;2022-11-22T09:13:37;94756.31;;;4.96;100.00
596;BME280;19946;49.306;11.350;2022-11-22T09:16:37;94747.50;;;5.18;100.00
596;BME280;19946;49.306;11.350;2022-11-22T09:19:37;94721.09;;;4.69;100.00
596;BME280;19946;49.306;11.350;2022-11-22T09:22:38;94753.22;;;4.64;100.00
596;BME280;19946;49.306;11.350;2022-11-22T09:25:38;94688.72;;;4.49;100.00
596;BME280;19946;49.306;11.350;2022-11-22T09:28:39;94690.88;;;4.54;100.00
596;BME280;19946;49.306;11.350;2022-11-22T09:31:39;94729.28;;;5.02;100.00
596;BME280;19946;49.306;11.350;2022-11-22T09:34:40;94712.69;;;5.06;100.00
596;BME280;19946;49.306;11.350;2022-11-22T09:37:41;94693.34;;;5.11;100.00
596;BME280;19946;49.306;11.350;2022-11-22T09:40:45;94686.56;;;4.64;100.00
596;BME280;19946;49.306;11.350;2022-11-22T09:54:06;94755.16;;;5.28;100.00
596;BME280;19946;49.306;11.350;2022-11-22T09:57:21;94762.28;;;5.34;100.00
596;BME280;19946;49.306;11.350;2022-11-22T10:00:26;94771.34;;;5.38;100.00
596;BME280;19946;49.306;11.350;2022-11-22T10:03:37;94785.66;;;5.31;100.00
596;BME280;19946;49.306;11.350;2022-11-22T10:06:42;94679.13;;;4.61;100.00
596;BME280;19946;49.306;11.350;2022-11-22T10:10:08;94788.38;;;5.39;100.00
596;BME280;19946;49.306;11.350;2022-11-22T10:13:18;94797.91;;;5.56;100.00
596;BME280;19946;49.306;11.350;2022-11-22T10:16:32;94790.44;;;5.63;100.00
596;BME280;19946;49.306;11.350;2022-11-22T10:20:02;94722.22;;;5.13;100.00
596;BME280;19946;49.306;11.350;2022-11-22T10:23:14;94737.75;;;5.22;100.00
596;BME280;19946;49.306;11.350;2022-11-22T10:26:26;94802.97;;;5.75;100.00
596;BME280;19946;49.306;11.350;2022-11-22T10:29:35;94801.03;;;5.87;100.00
596;BME280;19946;49.306;11.350;2022-11-22T10:32:52;94754.03;;;5.49;100.00
596;BME280;19946;49.306;11.350;2022-11-22T10:39:27;94811.16;;;5.61;100.00
596;BME280;19946;49.306;11.350;2022-11-22T10:43:19;94813.81;;;5.69;100.00
596;BME280;19946;49.306;11.350;2022-11-22T10:46:49;94819.50;;;5.63;100.00
596;BME280;19946;49.306;11.350;2022-11-22T10:50:19;94818.69;;;5.72;100.00
596;BME280;19946;49.306;11.350;2022-11-22T10:53:45;94819.63;;;5.71;100.00
596;BME280;19946;49.306;11.350;2022-11-22T10:56:52;94829.59;;;5.84;100.00
596;BME280;19946;49.306;11.350;2022-11-22T11:00:21;94825.78;;;5.98;100.00
596;BME280;19946;49.306;11.350;2022-11-22T11:03:34;94830.81;;;6.17;100.00
596;BME280;19946;49.306;11.350;2022-11-22T11:06:56;94829.59;;;5.94;100.00
596;BME280;19946;49.306;11.350;2022-11-22T11:10:04;94669.69;;;4.71;100.00
596;BME280;19946;49.306;11.350;2022-11-22T11:13:23;94828.59;;;5.48;100.00
596;BME280;19946;49.306;11.350;2022-11-22T11:16:27;94724.72;;;4.86;100.00
596;BME280;19946;49.306;11.350;2022-11-22T11:19:35;94818.00;;;5.70;100.00
596;BME280;19946;49.306;11.350;2022-11-22T11:22:37;94833.94;;;5.74;100.00
596;BME280;19946;49.306;11.350;2022-11-22T11:25:39;94772.03;;;5.40;100.00
596;BME280;19946;49.306;11.350;2022-11-22T11:28:42;94828.66;;;5.95;100.00
596;BME280;19946;49.306;11.350;2022-11-22T11:31:47;94835.13;;;6.26;100.00
596;BME280;19946;49.306;11.350;2022-11-22T11:34:55;94833.44;;;6.07;100.00
596;BME280;19946;49.306;11.350;2022-11-22T11:37:56;94696.00;;;5.29;100.00
596;BME280;19946;49.306;11.350;2022-11-22T11:40:57;94739.38;;;5.60;100.00
596;BME280;19946;49.306;11.350;2022-11-22T11:44:03;94735.06;;;5.60;100.00
596;BME280;19946;49.306;11.350;2022-11-22T11:47:04;94724.84;;;5.50;100.00
596;BME280;19946;49.306;11.350;2022-11-22T11:50:18;94724.34;;;5.37;100.00
596;BME280;19946;49.306;11.350;2022-11-22T11:53:24;94800.47;;;6.30;100.00
596;BME280;19946;49.306;11.350;2022-11-22T12:02:40;94800.56;;;6.11;100.00
596;BME280;19946;49.306;11.350;2022-11-22T12:05:41;94647.22;;;4.92;100.00
596;BME280;19946;49.306;11.350;2022-11-22T12:08:41;94765.97;;;5.68;100.00
596;BME280;19946;49.306;11.350;2022-11-22T12:11:46;94710.97;;;5.71;100.00
596;BME280;19946;49.306;11.350;2022-11-22T12:14:55;94780.00;;;6.11;100.00
596;BME280;19946;49.306;11.350;2022-11-22T12:25:24;94766.22;;;6.12;100.00
596;BME280;19946;49.306;11.350;2022-11-22T12:28:28;94725.44;;;5.99;100.00
596;BME280;19946;49.306;11.350;2022-11-22T12:31:38;94690.22;;;5.55;100.00
596;BME280;19946;49.306;11.350;2022-11-22T12:34:59;94750.84;;;6.02;100.00
596;BME280;19946;49.306;11.350;2022-11-22T12:38:10;94753.16;;;6.05;100.00
596;BME280;19946;49.306;11.350;2022-11-22T12:41:14;94735.84;;;5.70;100.00
596;BME280;19946;49.306;11.350;2022-11-22T12:44:18;94768.78;;;6.12;100.00
596;BME280;19946;49.306;11.350;2022-11-22T12:47:23;94632.34;;;5.05;100.00
596;BME280;19946;49.306;11.350;2022-11-22T12:50:48;94764.66;;;6.01;100.00
596;BME280;19946;49.306;11.350;2022-11-22T12:53:51;94739.31;;;5.79;100.00
596;BME280;19946;49.306;11.350;2022-11-22T12:56:54;94737.78;;;5.86;100.00
596;BME280;19946;49.306;11.350;2022-11-22T13:00:21;94700.28;;;5.38;100.00
596;BME280;19946;49.306;11.350;2022-11-22T13:03:29;94751.34;;;5.78;100.00
596;BME280;19946;49.306;11.350;2022-11-22T13:06:40;94711.81;;;5.62;100.00
596;BME280;19946;49.306;11.350;2022-11-22T13:09:48;94769.66;;;6.03;100.00
596;BME280;19946;49.306;11.350;2022-11-22T13:12:51;94769.31;;;5.78;100.00
596;BME280;19946;49.306;11.350;2022-11-22T13:15:54;94736.56;;;5.53;100.00
596;BME280;19946;49.306;11.350;2022-11-22T13:19:02;94657.69;;;5.18;100.00
596;BME280;19946;49.306;11.350;2022-11-22T13:22:20;94704.28;;;5.50;100.00
596;BME280;19946;49.306;11.350;2022-11-22T13:25:47;94665.03;;;5.31;100.00
596;BME280;19946;49.306;11.350;2022-11-22T13:28:54;94663.81;;;5.35;100.00
596;BME280;19946;49.306;11.350;2022-11-22T13:38:15;94729.22;;;5.95;100.00
596;BME280;19946;49.306;11.350;2022-11-22T13:41:28;94748.97;;;6.22;100.00
596;BME280;19946;49.306;11.350;2022-11-22T13:47:37;94754.91;;;6.05;100.00
596;BME280;19946;49.306;11.350;2022-11-22T13:53:47;94725.88;;;5.85;100.00
596;BME280;19946;49.306;11.350;2022-11-22T13:56:58;94762.50;;;5.87;100.00
596;BME280;19946;49.306;11.350;2022-11-22T14:03:35;94761.13;;;5.65;100.00
596;BME280;19946;49.306;11.350;2022-11-22T14:06:37;94740.66;;;5.46;100.00
596;BME280;19946;49.306;11.350;2022-11-22T14:09:41;94692.66;;;5.09;100.00
596;BME280;19946;49.306;11.350;2022-11-22T14:13:07;94693.63;;;4.99;100.00
596;BME280;19946;49.306;11.350;2022-11-22T14:16:23;94764.97;;;5.52;100.00
596;BME280;19946;49.306;11.350;2022-11-22T14:22:49;94694.81;;;5.14;100.00
596;BME280;19946;49.306;11.350;2022-11-22T14:29:30;94715.13;;;4.88;100.00
596;BME280;19946;49.306;11.350;2022-11-22T14:32:50;94781.88;;;5.35;100.00
596;BME280;19946;49.306;11.350;2022-11-22T14:42:44;94777.59;;;5.26;100.00
596;BME280;19946;49.306;11.350;2022-11-22T14:45:50;94729.53;;;4.99;100.00
596;BME280;19946;49.306;11.350;2022-11-22T14:48:58;94769.63;;;5.19;100.00
596;BME280;19946;49.306;11.350;2022-11-22T14:52:00;94800.25;;;5.30;100.00
596;BME280;19946;49.306;11.350;2022-11-22T14:55:04;94784.50;;;5.16;100.00
596;BME280;19946;49.306;11.350;2022-11-22T14:58:09;94773.03;;;4.91;100.00
596;BME280;19946;49.306;11.350;2022-11-22T15:01:43;94727.72;;;4.43;100.00
596;BME280;19946;49.306;11.350;2022-11-22T15:11:32;94809.50;;;4.75;100.00
596;BME280;19946;49.306;11.350;2022-11-22T15:15:08;94749.13;;;4.23;100.00
596;BME280;19946;49.306;11.350;2022-11-22T15:18:46;94820.63;;;4.45;100.00
596;BME280;19946;49.306;11.350;2022-11-22T15:21:41;94718.03;;;3.78;100.00
596;BME280;19946;49.306;11.350;2022-11-22T15:24:42;94845.63;;;4.43;100.00
596;BME280;19946;49.306;11.350;2022-11-22T15:27:42;94850.44;;;4.36;100.00
596;BME280;19946;49.306;11.350;2022-11-22T15:30:46;94799.25;;;4.06;100.00
596;BME280;19946;49.306;11.350;2022-11-22T15:33:49;94849.63;;;4.36;100.00
596;BME280;19946;49.306;11.350;2022-11-22T15:37:04;94851.91;;;4.29;100.00
596;BME280;19946;49.306;11.350;2022-11-22T15:40:14;94816.47;;;3.94;100.00
596;BME280;19946;49.306;11.350;2022-11-22T15:43:21;94765.00;;;3.37;100.00
596;BME280;19946;49.306;11.350;2022-11-22T15:46:23;94779.19;;;3.41;100.00
596;BME280;19946;49.306;11.350;2022-11-22T15:49:25;94845.31;;;3.96;100.00
596;BME280;19946;49.306;11.350;2022-11-22T15:52:28;94853.38;;;3.92;100.00
596;BME280;19946;49.306;11.350;2022-11-22T15:55:29;94808.09;;;3.62;100.00
596;BME280;19946;49.306;11.350;2022-11-22T15:58:31;94778.13;;;3.43;100.00
596;BME280;19946;49.306;11.350;2022-11-22T16:01:37;94859.34;;;4.02;100.00
596;BME280;19946;49.306;11.350;2022-11-22T16:04:37;94779.47;;;3.47;100.00
596;BME280;19946;49.306;11.350;2022-11-22T16:07:46;94823.25;;;3.75;100.00
596;BME280;19946;49.306;11.350;2022-11-22T16:10:49;94848.78;;;3.86;100.00
596;BME280;19946;49.306;11.350;2022-11-22T16:13:49;94744.31;;;3.19;100.00
596;BME280;19946;49.306;11.350;2022-11-22T16:16:50;94806.06;;;3.56;100.00
596;BME280;19946;49.306;11.350;2022-11-22T16:19:50;94794.69;;;3.49;100.00
596;BME280;19946;49.306;11.350;2022-11-22T16:32:25;94839.88;;;3.59;100.00
596;BME280;19946;49.306;11.350;2022-11-22T16:35:25;94813.25;;;3.41;100.00
596;BME280;19946;49.306;11.350;2022-11-22T16:38:26;94905.00;;;3.87;100.00
596;BME280;19946;49.306;11.350;2022-11-22T16:41:28;94820.94;;;3.41;100.00
596;BME280;19946;49.306;11.350;2022-11-22T16:44:52;94883.25;;;3.82;100.00
596;BME280;19946;49.306;11.350;2022-11-22T16:48:39;94898.06;;;3.78;100.00
596;BME280;19946;49.306;11.350;2022-11-22T16:51:43;94885.81;;;3.82;100.00
596;BME280;19946;49.306;11.350;2022-11-22T16:54:52;94886.75;;;3.81;100.00
596;BME280;19946;49.306;11.350;2022-11-22T16:57:53;94847.69;;;3.58;100.00
596;BME280;19946;49.306;11.350;2022-11-22T17:00:54;94876.84;;;3.66;100.00
596;BME280;19946;49.306;11.350;2022-11-22T17:03:55;94861.84;;;3.62;100.00
596;BME280;19946;49.306;11.350;2022-11-22T17:06:56;94812.88;;;3.25;100.00
596;BME280;19946;49.306;11.350;2022-11-22T17:09:56;94786.00;;;3.10;100.00
596;BME280;19946;49.306;11.350;2022-11-22T17:12:57;94823.31;;;3.33;100.00
596;BME280;19946;49.306;11.350;2022-11-22T17:15:57;94839.09;;;3.38;100.00
596;BME280;19946;49.306;11.350;2022-11-22T17:18:58;94812.09;;;3.24;100.00
596;BME280;19946;49.306;11.350;2022-11-22T17:21:58;94888.06;;;3.75;100.00
596;BME280;19946;49.306;11.350;2022-11-22T17:25:00;94816.75;;;3.19;100.00
596;BME280;19946;49.306;11.350;2022-11-22T17:28:00;94825.31;;;3.29;100.00
596;BME280;19946;49.306;11.350;2022-11-22T17:31:01;94818.69;;;3.27;100.00
596;BME280;19946;49.306;11.350;2022-11-22T17:34:02;94845.34;;;3.45;100.00
596;BME280;19946;49.306;11.350;2022-11-22T17:37:02;94833.91;;;3.28;100.00
596;BME280;19946;49.306;11.350;2022-11-22T17:40:03;94804.78;;;2.99;100.00
596;BME280;19946;49.306;11.350;2022-11-22T17:43:04;94860.31;;;3.29;100.00
596;BME280;19946;49.306;11.350;2022-11-22T17:46:04;94888.84;;;3.45;100.00
596;BME280;19946;49.306;11.350;2022-11-22T17:49:04;94917.59;;;3.58;100.00
596;BME280;19946;49.306;11.350;2022-11-22T17:52:05;94862.78;;;3.19;100.00
596;BME280;19946;49.306;11.350;2022-11-22T17:55:06;94909.16;;;3.47;100.00
596;BME280;19946;49.306;11.350;2022-11-22T17:58:06;94902.00;;;3.41;100.00
596;BME280;19946;49.306;11.350;2022-11-22T18:01:11;94922.78;;;3.47;100.00
596;BME280;19946;49.306;11.350;2022-11-22T18:04:12;94856.72;;;3.00;100.00
596;BME280;19946;49.306;11.350;2022-11-22T18:07:13;94907.53;;;3.25;100.00
596;BME280;19946;49.306;11.350;2022-11-22T18:10:14;94938.13;;;3.47;100.00
596;BME280;19946;49.306;11.350;2022-11-22T18:13:14;94875.63;;;3.08;100.00
596;BME280;19946;49.306;11.350;2022-11-22T18:16:14;94881.69;;;3.07;100.00
596;BME280;19946;49.306;11.350;2022-11-22T18:19:16;94943.25;;;3.47;100.00
596;BME280;19946;49.306;11.350;2022-11-22T18:22:16;94909.66;;;3.20;100.00
596;BME280;19946;49.306;11.350;2022-11-22T18:25:18;94858.63;;;2.86;100.00
596;BME280;19946;49.306;11.350;2022-11-22T18:28:18;94949.09;;;3.38;100.00
596;BME280;19946;49.306;11.350;2022-11-22T18:31:19;94868.84;;;2.86;100.00
596;BME280;19946;49.306;11.350;2022-11-22T18:34:20;94907.84;;;3.11;100.00
596;BME280;19946;49.306;11.350;2022-11-22T18:37:20;94868.53;;;2.80;100.00
596;BME280;19946;49.306;11.350;2022-11-22T18:40:21;94825.31;;;2.45;100.00
596;BME280;19946;49.306;11.350;2022-11-22T18:43:21;94894.44;;;2.86;100.00
596;BME280;19946;49.306;11.350;2022-11-22T18:46:21;94959.22;;;3.40;100.00
596;BME280;19946;49.306;11.350;2022-11-22T18:49:25;94846.84;;;2.63;100.00
596;BME280;19946;49.306;11.350;2022-11-22T18:52:25;94879.22;;;2.85;100.00
596;BME280;19946;49.306;11.350;2022-11-22T18:55:26;94949.59;;;3.32;100.00